Time;durP1;ratioP1;P1;durP2;ratioP2;P2;SDS_P1;SDS_P2;PMS_P1;PMS_P2;Temp;Humidity;BMP_temperature;BMP_pressure;BME280_temperature;BME280_humidity;BME280_pressure;Samples;Min_cycle;Max_cycle;Signal;HPM_P1;HPM_P2
2023/08/26 00:03:48;;;;;;;15.10;8.05;;;;;;;21.04;98.18;99960.81;8295322;28;20069;-80
2023/08/26 00:07:48;;;;;;;18.65;8.75;;;;;;;21.05;96.33;99967.16;8290398;28;20528;-81
2023/08/26 00:11:49;;;;;;;13.13;8.35;;;;;;;20.98;94.42;99966.34;8295991;28;20061;-81
2023/08/26 00:15:50;;;;;;;11.05;6.82;;;;;;;20.86;93.49;99957.09;8270112;28;20044;-80
2023/08/26 00:19:50;;;;;;;10.07;5.57;;;;;;;20.92;91.24;99978.19;8283317;28;20035;-80
2023/08/26 00:23:51;;;;;;;12.40;5.15;;;;;;;20.71;89.23;99945.56;8302935;28;20129;-81
2023/08/26 00:27:52;;;;;;;14.55;5.03;;;;;;;20.78;89.32;99968.34;8311201;28;20499;-81
2023/08/26 00:31:52;;;;;;;11.13;5.85;;;;;;;20.62;89.95;99977.09;8304307;28;20083;-81
2023/08/26 00:35:53;;;;;;;10.07;5.63;;;;;;;20.40;89.51;99946.31;8288001;28;20048;-81
2023/08/26 00:39:53;;;;;;;8.48;5.78;;;;;;;20.60;90.22;99998.41;8302491;28;20566;-80
2023/08/26 00:43:54;;;;;;;9.02;5.57;;;;;;;20.51;89.65;100013.47;8294836;28;20033;-81
2023/08/26 00:47:54;;;;;;;9.75;5.63;;;;;;;20.27;90.95;99993.06;8303877;28;20110;-81
2023/08/26 00:51:56;;;;;;;9.38;5.97;;;;;;;20.37;91.75;100017.31;8303920;28;20037;-81
2023/08/26 00:55:56;;;;;;;11.20;5.53;;;;;;;20.17;92.09;99989.91;8320733;28;20415;-80
2023/08/26 00:59:57;;;;;;;12.00;6.32;;;;;;;19.86;92.29;99969.69;8324176;28;20049;-80
2023/08/26 01:03:58;;;;;;;10.80;6.78;;;;;;;19.82;93.25;99993.13;8305871;28;20042;-81
2023/08/26 01:08:00;;;;;;;11.65;6.50;;;;;;;19.94;93.80;100038.06;8306340;28;20029;-81
2023/08/26 01:12:28;;;;;;;12.48;6.53;;;;;;;19.74;93.45;100042.69;8318659;28;20034;-81
2023/08/26 01:16:33;;;;;;;11.27;6.53;;;;;;;19.58;92.60;100029.41;8316666;28;20148;-81
2023/08/26 01:20:34;;;;;;;;;;;;;;;19.58;89.65;100057.69;8290563;28;20083;-80
2023/08/26 01:24:39;;;;;;;9.07;4.88;;;;;;;19.38;85.86;100037.63;8299821;28;20267;-81
2023/08/26 01:28:40;;;;;;;9.55;3.85;;;;;;;19.40;83.03;100055.53;8293348;28;20037;-81
2023/08/26 01:33:05;;;;;;;9.20;3.63;;;;;;;19.20;82.89;100056.53;8288747;28;20622;-81
2023/08/26 01:37:08;;;;;;;7.00;3.40;;;;;;;18.97;83.66;100040.44;8309113;28;20106;-81
2023/08/26 01:41:14;;;;;;;8.43;3.50;;;;;;;18.92;85.30;100055.81;8286573;28;20037;-80
2023/08/26 01:45:15;;;;;;;7.30;3.15;;;;;;;18.66;84.91;100053.81;8288656;28;20491;-81
2023/08/26 01:49:16;;;;;;;11.45;4.68;;;;;;;18.52;86.18;100056.69;8308264;28;20121;-81
2023/08/26 01:53:16;;;;;;;7.97;3.20;;;;;;;18.45;85.18;100067.59;8308919;28;20037;-81
2023/08/26 01:57:17;;;;;;;7.38;3.00;;;;;;;18.40;84.88;100070.09;8290198;28;20041;-82
2023/08/26 02:01:18;;;;;;;7.72;2.08;;;;;;;18.36;83.44;100071.50;8300522;28;20087;-81
2023/08/26 02:05:19;;;;;;;5.72;2.20;;;;;;;18.24;83.65;100069.53;8294357;28;20037;-88
2023/08/26 02:09:20;;;;;;;4.13;1.42;;;;;;;18.02;84.08;100079.69;8302010;28;20042;-88
2023/08/26 02:13:20;;;;;;;5.38;1.63;;;;;;;17.85;84.70;100075.56;8304673;28;20030;-89
2023/08/26 02:17:21;;;;;;;3.58;1.70;;;;;;;17.82;85.32;100086.91;8305593;28;20057;-87
2023/08/26 02:21:21;;;;;;;6.80;1.77;;;;;;;17.51;85.95;100061.81;8296475;28;20058;-89
2023/08/26 02:25:23;;;;;;;7.78;2.35;;;;;;;17.62;86.85;100102.28;8301837;28;20069;-81
2023/08/26 02:29:24;;;;;;;5.18;1.95;;;;;;;17.48;87.20;100078.59;8288728;28;20127;-81
2023/08/26 02:33:26;;;;;;;4.00;2.00;;;;;;;17.37;88.20;100093.59;8315937;28;20044;-81
2023/08/26 02:37:27;;;;;;;7.38;2.47;;;;;;;17.31;89.59;100085.31;8277562;28;20048;-81
2023/08/26 02:41:28;;;;;;;4.95;2.17;;;;;;;17.32;91.52;100095.19;8289393;28;20518;-80
2023/08/26 02:45:31;;;;;;;7.18;2.60;;;;;;;17.49;88.97;100124.03;8276264;28;20037;-81
2023/08/26 02:49:32;;;;;;;12.10;2.60;;;;;;;17.41;90.09;100113.16;8268319;28;20033;-81
2023/08/26 02:53:34;;;;;;;6.38;2.35;;;;;;;17.36;92.04;100118.38;8281968;28;20033;-81
2023/08/26 02:57:35;;;;;;;5.72;2.78;;;;;;;17.39;90.32;100113.34;8277436;28;20116;-80
2023/08/26 03:01:39;;;;;;;4.63;2.20;;;;;;;17.36;89.21;100102.00;8286627;28;20050;-78
2023/08/26 03:05:39;;;;;;;6.63;2.20;;;;;;;17.29;89.61;100092.84;8308007;28;20050;-79
2023/08/26 03:09:40;;;;;;;4.60;2.47;;;;;;;17.25;89.16;100097.03;8281756;28;20037;-79
2023/08/26 03:13:40;;;;;;;4.60;2.13;;;;;;;17.45;88.55;100122.72;8285510;28;20037;-78
2023/08/26 03:17:41;;;;;;;4.55;1.80;;;;;;;17.44;87.50;100110.06;8286038;28;20078;-86
2023/08/26 03:21:49;;;;;;;5.25;1.92;;;;;;;17.33;87.55;100105.09;8278800;28;20091;-79
2023/08/26 03:25:50;;;;;;;4.18;1.95;;;;;;;17.21;88.09;100093.00;8319646;28;20037;-79
2023/08/26 03:29:52;;;;;;;9.73;1.85;;;;;;;17.32;87.79;100122.53;8304280;28;20470;-79
2023/08/26 03:33:52;;;;;;;6.95;1.90;;;;;;;17.24;87.86;100126.25;8328587;28;20037;-79
2023/08/26 03:37:53;;;;;;;7.53;1.80;;;;;;;16.91;88.57;100061.34;8314871;28;20040;-86
2023/08/26 03:41:54;;;;;;;3.45;1.70;;;;;;;17.36;88.25;100134.78;8282622;28;20045;-86
2023/08/26 03:45:54;;;;;;;5.65;1.60;;;;;;;17.19;87.75;100133.31;8342415;28;20037;-86
2023/08/26 03:49:55;;;;;;;2.00;1.20;;;;;;;17.10;88.36;100129.00;8314780;28;20065;-87
2023/08/26 03:53:55;;;;;;;3.10;1.20;;;;;;;16.94;88.58;100113.69;8326553;28;20041;-87
2023/08/26 03:57:56;;;;;;;3.28;1.27;;;;;;;16.95;87.70;100126.31;8305588;28;20043;-86
2023/08/26 04:01:56;;;;;;;5.38;1.48;;;;;;;16.77;88.34;100100.44;8325231;28;20124;-87
2023/08/26 04:06:04;;;;;;;6.22;1.08;;;;;;;16.59;88.45;100119.94;8292104;28;20033;-87
2023/08/26 04:10:06;;;;;;;4.40;1.40;;;;;;;16.69;89.89;100146.94;8330102;28;20050;-88
2023/08/26 04:14:06;;;;;;;2.90;1.17;;;;;;;16.54;89.94;100135.19;8302232;28;20562;-88
2023/08/26 04:18:07;;;;;;;3.03;0.90;;;;;;;16.55;88.78;100150.50;8312270;28;20466;-87
2023/08/26 04:22:08;;;;;;;5.57;1.98;;;;;;;16.57;88.58;100148.47;8309594;28;20036;-86
2023/08/26 04:26:12;;;;;;;4.78;1.25;;;;;;;16.42;88.79;100131.19;8321662;28;20045;-88
2023/08/26 04:30:12;;;;;;;6.82;1.20;;;;;;;16.38;89.39;100121.69;8312098;28;20033;-88
2023/08/26 04:34:14;;;;;;;1.70;1.02;;;;;;;16.03;88.68;100084.22;8300799;28;20048;-87
2023/08/26 04:38:15;;;;;;;2.05;0.90;;;;;;;16.36;88.37;100140.97;8303326;28;20159;-87
2023/08/26 04:42:18;;;;;;;2.33;1.10;;;;;;;16.44;87.44;100145.53;8305222;28;20049;-86
2023/08/26 04:46:19;;;;;;;1.83;0.73;;;;;;;16.42;86.39;100144.84;8307578;28;20388;-86
2023/08/26 04:50:20;;;;;;;3.85;0.80;;;;;;;16.46;85.79;100140.72;8314617;28;20052;-87
2023/08/26 04:54:21;;;;;;;5.80;0.90;;;;;;;16.61;85.62;100155.22;8312205;28;20429;-88
2023/08/26 04:58:21;;;;;;;3.35;0.82;;;;;;;16.75;85.03;100157.13;8312364;28;20033;-79
2023/08/26 05:02:22;;;;;;;3.53;0.52;;;;;;;16.84;85.10;100173.19;8326180;28;20520;-87
2023/08/26 05:06:23;;;;;;;2.17;0.80;;;;;;;16.83;84.91;100154.28;8310397;28;20487;-79
2023/08/26 05:10:23;;;;;;;2.92;0.70;;;;;;;17.11;85.84;100168.97;8301348;28;20037;-79
2023/08/26 05:14:24;;;;;;;4.05;1.02;;;;;;;17.37;84.25;100183.78;8297183;28;20041;-79
2023/08/26 05:18:25;;;;;;;3.35;1.10;;;;;;;17.42;82.71;100140.31;8310513;28;20499;-80
2023/08/26 05:22:28;;;;;;;1.88;0.70;;;;;;;17.63;82.11;100148.56;8309204;28;20044;-79
2023/08/26 05:26:29;;;;;;;4.85;0.80;;;;;;;17.96;80.53;100173.50;8299560;28;20041;-79
2023/08/26 05:30:30;;;;;;;3.45;0.60;;;;;;;17.96;79.01;100139.84;8325048;28;20166;-79
2023/08/26 05:34:30;;;;;;;4.90;1.00;;;;;;;17.91;78.83;100145.91;8338183;28;20116;-80
2023/08/26 05:38:31;;;;;;;2.00;0.75;;;;;;;17.95;80.12;100185.47;8345727;28;20043;-80
2023/08/26 05:42:32;;;;;;;2.08;0.80;;;;;;;17.96;79.59;100159.81;8313388;28;20033;-79
2023/08/26 05:46:33;;;;;;;2.65;0.60;;;;;;;18.06;78.98;100152.13;8309916;28;20091;-80
2023/08/26 05:50:46;;;;;;;4.20;0.73;;;;;;;18.16;78.63;100149.03;8329906;28;20063;-79
2023/08/26 05:54:47;;;;;;;2.67;0.80;;;;;;;18.14;79.07;100146.50;8311731;28;20491;-80
2023/08/26 05:58:50;;;;;;;5.53;0.95;;;;;;;18.45;78.84;100171.63;8318864;28;20029;-81
2023/08/26 06:02:51;;;;;;;3.53;1.00;;;;;;;18.75;78.69;100184.06;8319189;28;20044;-80
2023/08/26 06:06:53;;;;;;;1.00;0.60;;;;;;;18.96;77.96;100196.81;8309794;28;20045;-80
2023/08/26 06:10:55;;;;;;;3.15;0.75;;;;;;;19.07;76.94;100190.78;8291086;28;20055;-80
2023/08/26 06:14:56;;;;;;;1.52;0.80;;;;;;;18.76;77.03;100136.44;8282786;28;20041;-81
2023/08/26 06:18:57;;;;;;;4.97;0.90;;;;;;;18.94;76.30;100117.56;8268244;28;20511;-80
2023/08/26 06:22:59;;;;;;;1.88;0.60;;;;;;;19.39;76.71;100188.22;8284608;28;20044;-81
2023/08/26 06:27:01;;;;;;;1.05;0.65;;;;;;;19.25;76.01;100131.59;8315674;28;20061;-80
2023/08/26 06:31:04;;;;;;;4.30;0.70;;;;;;;19.77;76.13;100191.28;8271532;28;20044;-82
2023/08/26 06:35:13;;;;;;;3.25;0.70;;;;;;;19.89;76.21;100199.75;8309088;28;20040;-81
2023/08/26 06:39:15;;;;;;;2.20;0.55;;;;;;;19.86;74.28;100142.53;8303691;28;20061;-81
2023/08/26 06:43:15;;;;;;;3.42;0.70;;;;;;;19.91;74.32;100131.78;8344495;28;20037;-83
2023/08/26 06:47:16;;;;;;;1.05;0.57;;;;;;;20.32;73.05;100173.63;8317415;28;20032;-82
2023/08/26 06:51:19;;;;;;;2.03;0.70;;;;;;;20.35;72.87;100130.13;8336795;28;20044;-93
2023/08/26 06:55:20;;;;;;;2.45;0.77;;;;;;;20.52;72.71;100141.50;8319695;28;20531;-96
2023/08/26 06:59:24;;;;;;;4.32;0.70;;;;;;;20.50;73.17;100110.66;8298214;28;20403;-95
2023/08/26 07:03:25;;;;;;;1.08;0.55;;;;;;;21.02;72.41;100176.50;8347464;28;20048;-95
2023/08/26 07:07:31;;;;;;;7.65;1.00;;;;;;;20.74;71.25;100118.22;8341727;28;20036;-94
2023/08/26 07:17:01;;;;;;;1.20;0.55;;;;;;;21.00;70.77;100112.66;8304527;28;20443;-94
2023/08/26 07:21:04;;;;;;;3.15;1.00;;;;;;;21.51;69.91;100178.63;8300227;28;20063;-95
2023/08/26 07:25:50;;;;;;;2.88;0.80;;;;;;;21.35;69.01;100116.72;8348230;28;21600;-92
2023/08/26 07:30:16;;;;;;;1.00;0.50;;;;;;;21.51;68.55;100127.22;8293128;28;20078;-86
2023/08/26 07:34:36;;;;;;;1.65;0.60;;;;;;;21.60;67.91;100103.88;8298183;28;20040;-93
2023/08/26 07:39:29;;;;;;;2.22;0.70;;;;;;;22.16;67.25;100151.56;8251105;28;20042;-89
2023/08/26 07:43:30;;;;;;;4.70;0.60;;;;;;;21.83;66.53;100093.13;8120841;28;20533;-93
2023/08/26 07:47:36;;;;;;;2.35;0.60;;;;;;;22.08;66.33;100112.44;8231414;28;20086;-93
2023/08/26 07:51:45;;;;;;;1.40;0.52;;;;;;;22.46;66.98;100141.53;8209453;28;20039;-92
2023/08/26 07:55:46;;;;;;;1.00;0.70;;;;;;;22.70;64.01;100121.41;8208156;28;20613;-89
2023/08/26 07:59:50;;;;;;;2.17;0.60;;;;;;;22.95;62.93;100168.19;8279014;28;20077;-91
2023/08/26 08:04:38;;;;;;;2.15;0.60;;;;;;;22.35;63.42;100106.47;8239591;28;20071;-90
2023/08/26 08:08:38;;;;;;;5.60;0.80;;;;;;;22.32;62.74;100100.56;8257035;28;20041;-81
2023/08/26 08:12:43;;;;;;;1.80;0.43;;;;;;;22.84;64.26;100158.78;8318111;28;20037;-82
2023/08/26 08:16:43;;;;;;;2.00;0.60;;;;;;;22.88;61.52;100165.50;8330929;28;20043;-82
2023/08/26 08:20:44;;;;;;;2.17;0.43;;;;;;;22.87;62.11;100147.28;8330615;28;20068;-90
2023/08/26 08:24:45;;;;;;;2.17;0.43;;;;;;;22.63;62.63;100117.03;8371766;28;20040;-93
2023/08/26 08:28:49;;;;;;;2.17;0.40;;;;;;;22.87;61.60;100122.47;8306932;28;20037;-87
2023/08/26 08:32:50;;;;;;;1.58;0.40;;;;;;;23.41;61.41;100140.06;8319806;28;20124;-91
2023/08/26 08:36:51;;;;;;;2.92;0.32;;;;;;;23.42;60.32;100126.03;8302824;28;20048;-92
2023/08/26 08:40:51;;;;;;;1.73;0.40;;;;;;;23.37;61.03;100152.66;8317804;28;20049;-82
2023/08/26 08:44:53;;;;;;;0.73;0.40;;;;;;;23.59;59.75;100168.50;8351429;28;20049;-82
2023/08/26 08:48:54;;;;;;;0.82;0.50;;;;;;;23.88;59.51;100169.56;8342762;28;20154;-82
2023/08/26 08:52:56;;;;;;;2.05;0.60;;;;;;;23.91;57.52;100166.34;8326535;28;20143;-82
2023/08/26 08:57:00;;;;;;;1.52;0.68;;;;;;;23.83;58.72;100125.25;8342017;28;20037;-82
2023/08/26 09:01:01;;;;;;;;;;;;;;;24.42;60.33;100163.81;8347070;28;20037;-82
2023/08/26 09:05:02;;;;;;;2.40;0.32;;;;;;;24.25;57.98;100146.28;8371385;28;19920;-81
2023/08/26 09:09:10;;;;;;;0.32;0.20;;;;;;;24.10;56.87;100170.75;8302123;28;20115;-84
2023/08/26 09:13:11;;;;;;;2.22;0.40;;;;;;;23.71;57.95;100105.03;8325692;28;20034;-84
2023/08/26 09:17:19;;;;;;;1.10;0.30;;;;;;;23.92;57.55;100102.59;8289652;28;20046;-84
2023/08/26 09:21:20;;;;;;;1.35;0.20;;;;;;;24.06;57.19;100133.63;8321752;28;20041;-83
2023/08/26 09:25:20;;;;;;;1.10;0.30;;;;;;;24.30;58.48;100165.72;8346730;28;20040;-84
2023/08/26 09:29:21;;;;;;;2.47;0.30;;;;;;;24.36;58.59;100165.63;8336581;28;20033;-84
2023/08/26 09:33:21;;;;;;;0.52;0.30;;;;;;;24.24;56.04;100105.91;8275204;28;20033;-83
2023/08/26 09:37:29;;;;;;;1.80;0.47;;;;;;;24.46;58.54;100098.72;8300662;28;20400;-93
2023/08/26 09:41:38;;;;;;;1.00;0.30;;;;;;;25.31;55.85;100103.38;8320683;28;20112;-92
2023/08/26 09:45:39;;;;;;;0.85;0.30;;;;;;;27.04;52.34;100110.56;8311820;28;20070;-89
2023/08/26 09:49:49;;;;;;;1.48;0.30;;;;;;;27.93;52.27;100148.09;8330493;28;20045;-88
2023/08/26 09:53:54;;;;;;;1.23;0.30;;;;;;;29.47;48.39;100155.09;8296416;28;20638;-83
2023/08/26 09:57:57;;;;;;;1.25;0.30;;;;;;;29.42;46.63;100169.84;8317681;28;20064;-81
2023/08/26 10:02:01;;;;;;;3.75;0.50;;;;;;;30.05;48.26;100158.34;8309708;28;20045;-83
2023/08/26 10:06:04;;;;;;;0.68;0.28;;;;;;;30.64;44.20;100155.06;8340686;28;20041;-83
2023/08/26 10:10:13;;;;;;;1.38;0.40;;;;;;;31.35;44.80;100170.63;8314290;28;20076;-85
2023/08/26 10:14:20;;;;;;;4.82;0.70;;;;;;;29.52;46.99;100161.50;8314412;28;20041;-83
2023/08/26 10:18:30;;;;;;;0.88;0.30;;;;;;;30.46;47.36;100144.47;8320716;28;20085;-82
2023/08/26 10:22:30;;;;;;;1.65;0.38;;;;;;;30.59;44.99;100153.13;8290921;28;20132;-83
2023/08/26 10:26:32;;;;;;;1.98;0.20;;;;;;;29.70;46.87;100154.66;8323007;28;20037;-82
2023/08/26 10:30:37;;;;;;;0.75;0.30;;;;;;;30.82;44.62;100129.38;8324316;28;20036;-93
2023/08/26 10:34:57;;;;;;;2.22;0.30;;;;;;;31.19;44.04;100141.03;8360979;28;20056;-96
2023/08/26 10:38:59;;;;;;;0.43;0.30;;;;;;;30.49;45.14;100113.22;8287816;28;20040;-92
2023/08/26 10:43:05;;;;;;;1.10;0.30;;;;;;;30.32;45.56;100103.19;8314662;28;20487;-92
2023/08/26 10:47:09;;;;;;;0.43;0.20;;;;;;;30.95;44.54;100107.28;8334723;28;20045;-88
2023/08/26 10:51:10;;;;;;;0.65;0.35;;;;;;;31.26;44.26;100163.91;8306230;28;20037;-85
2023/08/26 10:55:21;;;;;;;1.80;0.35;;;;;;;29.26;46.42;100117.94;8307804;28;20124;-84
2023/08/26 10:59:35;;;;;;;3.38;0.35;;;;;;;31.63;44.89;100141.97;8316304;28;20041;-81
2023/08/26 11:03:37;;;;;;;12.93;1.48;;;;;;;32.21;45.11;100163.47;8327991;28;20080;-84
2023/08/26 11:07:39;;;;;;;2.10;0.40;;;;;;;33.04;42.20;100142.59;8364897;28;20044;-84
2023/08/26 11:11:39;;;;;;;0.70;0.30;;;;;;;33.02;42.11;100150.47;8357362;28;20039;-85
2023/08/26 11:15:42;;;;;;;2.00;0.45;;;;;;;31.84;42.45;100110.00;8308079;28;20042;-83
2023/08/26 11:19:43;;;;;;;2.67;0.40;;;;;;;30.91;45.88;100145.28;8304215;28;20467;-82
2023/08/26 11:23:47;;;;;;;1.17;0.47;;;;;;;31.10;45.84;100137.97;8362544;28;20049;-84
2023/08/26 11:27:47;;;;;;;1.10;0.30;;;;;;;30.94;46.70;100143.88;8324126;28;20037;-84
2023/08/26 11:31:48;;;;;;;0.93;0.30;;;;;;;31.50;45.12;100086.72;8356626;28;20063;-84
2023/08/26 11:35:49;;;;;;;1.70;0.30;;;;;;;32.68;43.17;100099.25;8335152;28;20049;-84
2023/08/26 11:39:50;;;;;;;0.70;0.30;;;;;;;32.84;42.36;100119.53;8305980;28;20124;-84
2023/08/26 11:43:51;;;;;;;1.52;0.50;;;;;;;29.29;47.77;100120.19;8325399;28;20037;-83
2023/08/26 11:47:53;;;;;;;2.40;0.40;;;;;;;26.63;51.32;100109.13;8334497;28;20112;-84
2023/08/26 11:51:55;;;;;;;1.90;0.50;;;;;;;26.05;55.09;100113.44;8312066;28;20412;-84
2023/08/26 11:55:56;;;;;;;1.52;0.50;;;;;;;25.82;54.37;100111.59;8345216;28;20045;-84
2023/08/26 12:00:09;;;;;;;1.98;0.50;;;;;;;26.25;52.94;100097.13;8335669;28;20064;-84
2023/08/26 12:04:16;;;;;;;0.80;0.57;;;;;;;26.64;51.54;100091.44;8311706;28;20034;-85
2023/08/26 12:08:21;;;;;;;3.05;0.68;;;;;;;26.23;52.80;100091.84;8319176;28;20036;-83
2023/08/26 12:12:23;;;;;;;3.13;0.55;;;;;;;26.69;53.18;100108.13;8331536;28;20037;-83
2023/08/26 12:16:23;;;;;;;1.98;0.50;;;;;;;27.57;51.35;100121.78;8337632;28;20048;-81
2023/08/26 12:20:27;;;;;;;5.72;0.80;;;;;;;27.81;50.39;100111.25;8376934;28;20041;-80
2023/08/26 12:24:27;;;;;;;2.67;0.50;;;;;;;27.25;50.93;100118.09;8343961;28;20441;-79
2023/08/26 12:28:28;;;;;;;2.60;0.50;;;;;;;27.22;51.03;100123.28;8310987;28;20107;-80
2023/08/26 12:32:29;;;;;;;1.25;0.65;;;;;;;26.88;50.77;100072.59;8342896;28;20402;-81
2023/08/26 12:36:30;;;;;;;1.08;0.57;;;;;;;26.15;52.56;100056.25;8315566;28;20050;-80
2023/08/26 12:40:32;;;;;;;0.93;0.43;;;;;;;26.15;52.23;100089.50;8308022;28;20041;-82
2023/08/26 12:44:38;;;;;;;1.05;0.50;;;;;;;25.99;53.13;100090.34;8321608;28;20074;-89
2023/08/26 12:48:42;;;;;;;1.48;0.50;;;;;;;25.97;53.47;100084.19;8329971;28;20029;-91
2023/08/26 12:52:42;;;;;;;2.60;0.40;;;;;;;25.92;53.08;100106.25;8293453;28;20454;-83
2023/08/26 12:56:43;;;;;;;2.65;0.60;;;;;;;26.02;54.20;100117.56;8346334;28;20041;-83
2023/08/26 13:00:44;;;;;;;4.70;0.63;;;;;;;25.81;52.26;100060.06;8327568;28;20032;-84
2023/08/26 13:04:45;;;;;;;1.05;0.40;;;;;;;26.32;52.16;100068.16;8351319;28;20446;-84
2023/08/26 13:08:45;;;;;;;1.02;0.50;;;;;;;26.38;52.89;100082.94;8346156;28;20681;-89
2023/08/26 13:12:46;;;;;;;3.42;0.95;;;;;;;26.44;52.87;100091.06;8343422;28;20599;-90
2023/08/26 13:16:49;;;;;;;1.38;0.50;;;;;;;26.24;51.91;100054.75;8317405;28;20038;-88
2023/08/26 13:20:49;;;;;;;3.00;0.40;;;;;;;25.96;52.25;100051.19;8325358;28;20036;-92
2023/08/26 13:24:51;;;;;;;1.55;0.60;;;;;;;26.35;53.15;100075.13;8340404;28;20056;-92
2023/08/26 13:28:52;;;;;;;2.22;0.68;;;;;;;26.29;53.33;100076.16;8340089;28;20041;-81
2023/08/26 13:32:52;;;;;;;1.30;0.50;;;;;;;26.28;53.01;100089.16;8341995;28;20048;-81
2023/08/26 13:36:53;;;;;;;1.30;0.70;;;;;;;26.22;51.90;100087.41;8357088;28;20037;-81
2023/08/26 13:40:53;;;;;;;1.88;0.50;;;;;;;26.15;52.37;100061.78;8341366;28;20037;-81
2023/08/26 13:44:54;;;;;;;0.82;0.40;;;;;;;26.39;52.79;100068.84;8336258;28;20107;-81
2023/08/26 13:48:57;;;;;;;1.30;0.50;;;;;;;25.96;51.84;100045.63;8357463;28;20530;-81
2023/08/26 13:52:57;;;;;;;4.90;0.60;;;;;;;26.18;51.78;100035.50;8343004;28;20045;-81
2023/08/26 13:57:01;;;;;;;2.20;0.40;;;;;;;26.02;52.34;100042.75;8310242;28;20172;-83
2023/08/26 14:01:04;;;;;;;0.60;0.40;;;;;;;25.83;52.79;100057.88;8328456;28;20079;-90
2023/08/26 14:05:07;;;;;;;2.10;0.50;;;;;;;25.89;53.19;100073.50;8315182;28;20065;-90
2023/08/26 14:09:08;;;;;;;2.88;0.77;;;;;;;25.76;52.51;100029.50;8365661;28;20049;-80
2023/08/26 14:13:10;;;;;;;1.27;0.50;;;;;;;25.85;53.26;100085.31;8334135;28;20120;-80
2023/08/26 14:17:10;;;;;;;4.05;0.90;;;;;;;25.78;55.29;100060.56;8302619;28;20387;-80
2023/08/26 14:21:15;;;;;;;1.00;0.57;;;;;;;25.87;54.92;100056.31;8321744;28;20375;-80
2023/08/26 14:25:15;;;;;;;;;;;;;;;26.03;57.13;100091.53;8312410;28;20053;-82
2023/08/26 14:29:17;;;;;;;1.55;0.52;;;;;;;26.14;55.70;100064.81;8347854;28;20647;-81
2023/08/26 14:33:17;;;;;;;5.32;0.90;;;;;;;26.34;55.29;100078.97;8358828;28;20690;-80
2023/08/26 14:37:18;;;;;;;4.78;0.60;;;;;;;26.35;54.40;100075.97;8333228;28;20411;-88
2023/08/26 14:41:20;;;;;;;5.35;1.25;;;;;;;26.37;53.76;100047.97;8309424;28;20082;-87
2023/08/26 14:45:28;;;;;;;1.33;0.53;;;;;;;26.77;54.34;100057.75;8302861;28;20128;-89
2023/08/26 14:49:29;;;;;;;1.20;0.57;;;;;;;26.35;52.98;100028.81;8324733;28;20033;-88
2023/08/26 14:53:30;;;;;;;1.35;0.40;;;;;;;26.53;52.20;100070.13;8340294;28;20119;-89
2023/08/26 14:57:33;;;;;;;1.20;0.50;;;;;;;26.54;53.58;100059.91;8348429;28;20521;-88
2023/08/26 15:01:33;;;;;;;1.60;0.60;;;;;;;26.54;54.42;100015.53;8346243;28;20047;-89
2023/08/26 15:05:34;;;;;;;4.45;0.60;;;;;;;26.24;53.24;100007.63;8312090;28;20037;-89
2023/08/26 15:09:36;;;;;;;2.75;0.68;;;;;;;26.15;53.20;100039.63;8328490;28;24646;-91
2023/08/26 15:13:37;;;;;;;0.65;0.60;;;;;;;26.24;53.32;100043.66;8322391;28;20067;-88
2023/08/26 15:17:38;;;;;;;0.80;0.40;;;;;;;26.25;54.58;100028.69;8319109;28;20508;-90
2023/08/26 15:21:39;;;;;;;1.10;0.60;;;;;;;25.95;54.10;99980.25;8314674;28;20041;-90
2023/08/26 15:25:53;;;;;;;2.75;0.60;;;;;;;25.82;53.31;99967.56;8334901;28;20481;-90
2023/08/26 15:29:54;;;;;;;;;;;;;;;26.06;54.15;100024.50;8293649;28;20059;-90
2023/08/26 15:33:54;;;;;;;2.77;0.73;;;;;;;26.09;54.08;100012.91;8352272;28;19916;-95
2023/08/26 15:37:55;;;;;;;3.67;0.80;;;;;;;26.00;54.32;99997.81;8333633;28;20650;-93
2023/08/26 15:41:56;;;;;;;1.75;0.68;;;;;;;25.92;54.74;99967.72;8328950;28;20057;-95
2023/08/26 15:45:57;;;;;;;2.03;0.93;;;;;;;26.22;53.05;100000.63;8315005;28;20044;-94
2023/08/26 15:49:58;;;;;;;0.85;0.50;;;;;;;26.08;53.41;99997.41;8335369;28;20044;-93
2023/08/26 15:53:58;;;;;;;1.25;0.90;;;;;;;25.91;54.13;99988.22;8354141;28;20120;-93
2023/08/26 15:57:59;;;;;;;0.95;0.70;;;;;;;25.61;53.87;99948.94;8349600;28;20029;-93
2023/08/26 16:02:07;;;;;;;1.67;0.73;;;;;;;25.74;54.55;99976.28;8353447;28;20045;-94
2023/08/26 16:06:08;;;;;;;1.42;0.77;;;;;;;25.76;53.65;99951.94;8358314;28;20127;-92
2023/08/26 16:10:10;;;;;;;2.22;0.50;;;;;;;25.81;53.65;99946.50;8335024;28;20038;-94
2023/08/26 16:14:13;;;;;;;2.67;0.70;;;;;;;25.62;54.47;99953.41;8330930;28;20715;-95
2023/08/26 16:18:26;;;;;;;1.98;0.73;;;;;;;25.52;55.53;99953.22;8302907;28;20052;-92
2023/08/26 16:22:33;;;;;;;1.63;0.70;;;;;;;25.33;56.65;99957.31;8305896;28;20042;-82
2023/08/26 16:26:34;;;;;;;1.23;0.70;;;;;;;25.42;55.96;99989.03;8364121;28;20115;-82
2023/08/26 16:30:34;;;;;;;3.75;1.35;;;;;;;24.89;58.22;99933.22;8352049;28;20041;-82
2023/08/26 16:34:37;;;;;;;3.83;0.60;;;;;;;24.75;57.24;99926.28;8338942;28;20163;-83
2023/08/26 16:38:40;;;;;;;1.63;0.70;;;;;;;24.60;57.82;99946.16;8330155;28;20048;-81
2023/08/26 16:42:40;;;;;;;4.45;0.98;;;;;;;24.62;58.72;99962.50;8316475;28;20053;-82
2023/08/26 16:46:43;;;;;;;1.98;0.40;;;;;;;24.97;59.72;99941.09;8325981;28;20049;-92
2023/08/26 16:50:58;;;;;;;1.40;0.65;;;;;;;24.70;57.37;99928.97;8301505;28;20525;-84
2023/08/26 16:55:02;;;;;;;1.10;0.50;;;;;;;24.64;57.84;99954.81;8323954;28;20049;-93
2023/08/26 16:59:06;;;;;;;2.08;0.70;;;;;;;24.65;57.99;99942.69;8293194;28;20042;-82
2023/08/26 17:03:07;;;;;;;1.10;0.73;;;;;;;24.78;58.94;99993.03;8340758;28;20446;-84
2023/08/26 17:07:07;;;;;;;0.93;0.68;;;;;;;24.62;59.48;99987.38;8338322;28;20102;-83
2023/08/26 17:11:11;;;;;;;5.07;0.73;;;;;;;24.66;59.66;100016.25;8309244;28;20037;-83
2023/08/26 17:15:12;;;;;;;3.20;1.17;;;;;;;24.44;60.62;100012.41;8312243;28;20396;-83
2023/08/26 17:19:12;;;;;;;3.10;1.00;;;;;;;24.31;61.33;100019.03;8320160;28;20067;-84
2023/08/26 17:23:13;;;;;;;2.67;1.33;;;;;;;24.24;61.51;100028.56;8309791;28;20041;-84
2023/08/26 17:27:13;;;;;;;2.45;0.90;;;;;;;24.00;62.28;99999.25;8296676;28;20071;-82
2023/08/26 17:31:14;;;;;;;1.52;0.63;;;;;;;24.11;61.93;100028.75;8323112;28;20128;-83
2023/08/26 17:35:15;;;;;;;1.52;1.02;;;;;;;23.99;61.26;100012.19;8324892;28;20456;-82
2023/08/26 17:39:15;;;;;;;3.38;0.90;;;;;;;23.90;61.43;100015.50;8334166;28;20064;-82
2023/08/26 17:43:16;;;;;;;1.92;0.85;;;;;;;23.92;62.38;100024.41;8350304;28;20041;-85
2023/08/26 17:47:19;;;;;;;1.25;0.65;;;;;;;24.00;61.97;100037.91;8339077;28;20119;-83
2023/08/26 17:51:20;;;;;;;2.20;1.10;;;;;;;23.95;62.02;100046.06;8314005;23;20049;-62
2023/08/26 17:55:20;;;;;;;2.83;1.45;;;;;;;23.87;62.09;100049.13;8303964;28;20044;-60
2023/08/26 17:59:21;;;;;;;4.63;1.52;;;;;;;23.80;62.80;100049.25;8302734;28;20037;-60
2023/08/26 18:03:21;;;;;;;1.77;0.70;;;;;;;23.78;62.98;100056.09;8304795;28;20065;-60
2023/08/26 18:07:23;;;;;;;2.70;0.80;;;;;;;23.68;63.77;100056.66;8304352;28;20049;-60
2023/08/26 18:11:24;;;;;;;1.63;1.25;;;;;;;23.55;65.29;100056.03;8309819;28;20078;-60
2023/08/26 18:15:25;;;;;;;2.80;1.88;;;;;;;23.43;65.93;100068.94;8295266;28;20092;-60
2023/08/26 18:19:25;;;;;;;3.17;1.50;;;;;;;23.46;66.10;100076.75;8299514;28;20459;-61
2023/08/26 18:23:26;;;;;;;7.72;2.83;;;;;;;23.40;65.81;100080.44;8304042;28;20037;-60
2023/08/26 18:27:26;;;;;;;2.65;1.73;;;;;;;23.30;65.74;100077.41;8299895;28;20582;-60
2023/08/26 18:31:27;;;;;;;1.50;0.90;;;;;;;23.24;65.33;100084.72;8303921;28;20145;-61
2023/08/26 18:35:27;;;;;;;1.70;1.20;;;;;;;23.21;65.51;100077.69;8282801;28;20038;-61
2023/08/26 18:39:28;;;;;;;7.18;2.67;;;;;;;22.91;67.60;100082.31;8303118;28;20041;-61
2023/08/26 18:43:28;;;;;;;2.33;1.33;;;;;;;22.93;67.25;100091.22;8300018;28;20045;-60
2023/08/26 18:47:29;;;;;;;2.72;1.20;;;;;;;22.76;68.52;100098.44;8282156;28;20412;-60
2023/08/26 18:51:29;;;;;;;3.20;1.45;;;;;;;22.55;69.11;100098.88;8299353;28;20050;-60
2023/08/26 18:55:30;;;;;;;2.58;1.35;;;;;;;22.41;69.51;100086.25;8300134;28;20073;-60
2023/08/26 18:59:30;;;;;;;4.05;1.98;;;;;;;22.36;69.54;100097.16;8299439;28;20464;-60